Time;durP1;ratioP1;P1;durP2;ratioP2;P2;SDS_P1;SDS_P2;PMS_P1;PMS_P2;Temp;Humidity;BMP_temperature;BMP_pressure;BME280_temperature;BME280_humidity;BME280_pressure;Samples;Min_cycle;Max_cycle;Signal;HPM_P1;HPM_P2
2021/10/20 00:00:39;;;;;;;0.40;0.30;;;17.40;99.90;;;;;;5033448;28;20271;-67
2021/10/20 00:03:05;;;;;;;1.90;1.27;;;17.30;99.90;;;;;;5033514;28;20283;-66
2021/10/20 00:05:30;;;;;;;5.57;4.97;;;17.20;99.90;;;;;;5033312;28;20255;-67
2021/10/20 00:07:57;;;;;;;4.43;2.93;;;17.20;99.90;;;;;;5036185;28;20281;-66
2021/10/20 00:10:23;;;;;;;0.63;0.40;;;17.20;99.90;;;;;;5035608;28;20185;-67
2021/10/20 00:12:50;;;;;;;1.90;1.67;;;17.00;99.90;;;;;;5035264;28;20444;-67
2021/10/20 00:15:19;;;;;;;0.40;0.20;;;16.90;99.90;;;;;;5035412;28;20173;-67
2021/10/20 00:17:45;;;;;;;1.50;1.00;;;16.90;99.90;;;;;;5035187;28;20467;-67
2021/10/20 00:20:15;;;;;;;1.10;1.10;;;16.80;99.90;;;;;;5035274;28;20428;-68
2021/10/20 00:22:41;;;;;;;1.20;0.97;;;16.80;99.90;;;;;;5036072;28;20434;-67
2021/10/20 00:25:09;;;;;;;2.43;2.23;;;16.70;99.90;;;;;;5018820;28;20460;-67
2021/10/20 00:27:35;;;;;;;1.73;1.43;;;16.70;99.90;;;;;;5036976;28;20443;-67
2021/10/20 00:30:00;;;;;;;0.60;0.57;;;16.70;99.90;;;;;;5037122;28;20420;-66
2021/10/20 00:32:26;;;;;;;0.70;0.57;;;16.70;99.90;;;;;;5037092;28;20761;-67
2021/10/20 00:34:51;;;;;;;0.40;0.40;;;16.70;99.90;;;;;;5037138;28;20529;-66
2021/10/20 00:37:17;;;;;;;0.40;0.20;;;16.70;99.90;;;;;;5019664;28;20181;-67
2021/10/20 00:39:43;;;;;;;0.40;0.20;;;16.70;99.90;;;;;;5036485;28;20185;-67
2021/10/20 00:42:08;;;;;;;1.57;1.20;;;16.60;99.90;;;;;;5036961;28;20646;-67
2021/10/20 00:44:48;;;;;;;5.07;3.03;;;16.60;99.90;;;;;;5036681;28;20463;-68
2021/10/20 00:47:14;;;;;;;0.40;0.37;;;16.70;99.90;;;;;;5036678;28;20180;-67
2021/10/20 00:49:40;;;;;;;1.17;1.13;;;16.70;99.90;;;;;;5036481;28;21147;-68
2021/10/20 00:52:06;;;;;;;2.00;1.80;;;16.70;99.90;;;;;;5036774;28;20427;-67
2021/10/20 00:54:31;;;;;;;0.40;0.23;;;16.70;99.90;;;;;;5036489;28;20197;-67
2021/10/20 00:56:57;;;;;;;3.70;2.07;;;16.70;99.90;;;;;;5019016;28;20603;-67
2021/10/20 00:59:23;;;;;;;1.47;0.73;;;16.60;99.90;;;;;;5036419;28;20190;-67
2021/10/20 01:01:49;;;;;;;1.43;1.33;;;16.50;99.90;;;;;;5036468;28;20177;-66
2021/10/20 01:04:14;;;;;;;2.03;1.90;;;16.50;99.90;;;;;;5018798;28;20209;-67
2021/10/20 01:06:41;;;;;;;5.70;4.03;;;16.40;99.90;;;;;;5036450;28;20174;-67
2021/10/20 01:09:06;;;;;;;0.40;0.40;;;16.40;99.90;;;;;;5036036;28;20500;-67
2021/10/20 01:11:32;;;;;;;0.50;0.50;;;16.40;99.90;;;;;;5036102;28;20428;-68
2021/10/20 01:13:57;;;;;;;0.50;0.30;;;16.40;99.90;;;;;;5036373;28;20173;-67
2021/10/20 01:16:23;;;;;;;1.90;0.87;;;16.40;99.90;;;;;;5036152;28;20185;-67
2021/10/20 01:18:49;;;;;;;0.90;0.70;;;16.40;99.90;;;;;;5035703;28;20192;-67
2021/10/20 01:21:20;;;;;;;8.70;3.60;;;16.40;99.90;;;;;;5036117;28;20519;-67
2021/10/20 01:23:47;;;;;;;2.27;2.17;;;16.50;99.90;;;;;;5035928;28;20661;-67
2021/10/20 01:26:14;;;;;;;0.43;0.37;;;16.40;99.90;;;;;;5018444;28;20495;-66
2021/10/20 01:28:39;;;;;;;0.40;0.20;;;16.40;99.90;;;;;;5035606;28;20427;-67
2021/10/20 01:31:05;;;;;;;1.90;1.80;;;16.40;99.90;;;;;;5035789;28;20424;-67
2021/10/20 01:33:31;;;;;;;0.90;0.80;;;16.40;99.90;;;;;;5035920;28;20217;-67
2021/10/20 01:35:56;;;;;;;0.40;0.30;;;16.40;99.90;;;;;;5035918;28;20498;-67
2021/10/20 01:38:22;;;;;;;0.47;0.30;;;16.40;99.90;;;;;;5035575;28;20435;-67
2021/10/20 01:40:48;;;;;;;2.43;1.03;;;16.50;99.90;;;;;;5035692;28;20289;-67
2021/10/20 01:43:13;;;;;;;4.73;1.60;;;16.40;99.90;;;;;;5035667;28;20221;-67
2021/10/20 01:45:39;;;;;;;2.90;2.60;;;16.40;99.90;;;;;;5018125;28;20213;-67
2021/10/20 01:48:05;;;;;;;1.60;1.50;;;16.40;99.90;;;;;;5035298;28;20252;-68
2021/10/20 01:50:30;;;;;;;2.63;2.43;;;16.40;99.90;;;;;;5017759;28;20204;-67
2021/10/20 01:52:56;;;;;;;0.70;0.50;;;16.40;99.90;;;;;;5035341;28;20969;-67
2021/10/20 01:55:22;;;;;;;0.90;0.70;;;16.30;99.90;;;;;;5035374;28;20266;-67
2021/10/20 01:57:48;;;;;;;0.40;0.30;;;16.40;99.90;;;;;;5035221;28;20181;-66
2021/10/20 02:00:14;;;;;;;2.50;1.80;;;16.40;99.90;;;;;;5035197;28;20424;-66
2021/10/20 02:02:40;;;;;;;0.40;0.30;;;16.40;99.90;;;;;;5035332;28;20235;-67
2021/10/20 02:05:11;;;;;;;1.47;1.37;;;16.30;99.90;;;;;;5035209;28;20490;-67
2021/10/20 02:07:37;;;;;;;2.10;1.03;;;16.30;99.90;;;;;;5035310;28;20424;-67
2021/10/20 02:10:12;;;;;;;1.57;1.03;;;16.30;99.90;;;;;;5017550;28;20815;-67
2021/10/20 02:12:38;;;;;;;1.90;1.17;;;16.30;99.90;;;;;;5035042;28;20655;-66
2021/10/20 02:15:04;;;;;;;1.57;1.47;;;16.30;99.90;;;;;;5035148;28;20432;-66
2021/10/20 02:17:30;;;;;;;5.13;2.30;;;16.20;99.90;;;;;;5034900;28;20935;-66
2021/10/20 02:19:56;;;;;;;11.97;1.77;;;16.20;99.90;;;;;;5034733;28;20432;-66
2021/10/20 02:22:22;;;;;;;2.70;0.70;;;16.20;99.90;;;;;;5034820;28;20438;-67
2021/10/20 02:24:47;;;;;;;0.77;0.60;;;16.20;99.90;;;;;;5034690;28;20202;-67
2021/10/20 02:27:13;;;;;;;0.73;0.73;;;16.20;99.90;;;;;;5034718;28;20185;-67
2021/10/20 02:29:38;;;;;;;4.63;4.30;;;16.30;99.90;;;;;;5034002;28;20177;-67
2021/10/20 02:32:04;;;;;;;1.90;1.33;;;16.20;99.90;;;;;;5034689;28;20614;-67
2021/10/20 02:34:29;;;;;;;1.10;1.00;;;16.10;99.90;;;;;;5034581;28;20193;-67
2021/10/20 02:36:55;;;;;;;0.67;0.63;;;16.20;99.90;;;;;;5034486;28;20426;-67
2021/10/20 02:39:21;;;;;;;0.67;0.67;;;16.20;99.90;;;;;;5034081;28;20188;-67
2021/10/20 02:41:46;;;;;;;4.03;2.43;;;16.30;99.90;;;;;;5034312;28;20182;-67
2021/10/20 02:44:12;;;;;;;1.43;0.67;;;16.20;99.90;;;;;;5034367;28;20189;-67
2021/10/20 02:46:38;;;;;;;1.17;0.57;;;16.20;99.90;;;;;;5034468;28;20637;-67
2021/10/20 02:49:03;;;;;;;0.63;0.63;;;16.20;99.90;;;;;;5034129;28;20196;-67
2021/10/20 02:51:30;;;;;;;0.40;0.20;;;16.20;99.90;;;;;;5034374;28;20486;-67
2021/10/20 02:53:57;;;;;;;0.30;0.20;;;16.30;99.90;;;;;;5034281;28;20189;-67
2021/10/20 02:56:23;;;;;;;0.40;0.20;;;16.20;99.90;;;;;;5034588;28;20440;-67
2021/10/20 02:58:48;;;;;;;0.37;0.20;;;16.20;99.90;;;;;;5016634;28;20200;-66
2021/10/20 03:01:14;;;;;;;0.40;0.20;;;16.30;99.90;;;;;;5034707;28;20815;-67
2021/10/20 03:03:39;;;;;;;0.60;0.50;;;16.30;99.90;;;;;;5034187;28;20190;-67
2021/10/20 03:06:05;;;;;;;0.40;0.40;;;16.30;99.90;;;;;;5033993;28;20217;-67
2021/10/20 03:08:31;;;;;;;3.33;1.47;;;16.30;99.90;;;;;;5033715;28;20565;-67
2021/10/20 03:10:56;;;;;;;1.63;1.03;;;16.30;99.90;;;;;;5034019;28;20178;-67
2021/10/20 03:13:22;;;;;;;0.60;0.57;;;16.30;99.90;;;;;;5033979;28;20215;-67
2021/10/20 03:15:47;;;;;;;0.40;0.30;;;16.20;99.90;;;;;;5033823;28;20182;-67
2021/10/20 03:18:13;;;;;;;0.40;0.20;;;16.20;99.90;;;;;;5033676;28;20193;-67
2021/10/20 03:20:38;;;;;;;0.40;0.20;;;16.30;99.90;;;;;;5033781;28;20224;-67
2021/10/20 03:23:04;;;;;;;2.00;0.83;;;16.30;99.90;;;;;;5033740;28;20251;-67
2021/10/20 03:25:30;;;;;;;3.13;2.77;;;16.20;99.90;;;;;;5033622;28;20208;-67
2021/10/20 03:27:55;;;;;;;0.63;0.60;;;16.10;99.90;;;;;;5033519;28;20180;-67
2021/10/20 03:30:22;;;;;;;0.40;0.30;;;16.10;99.90;;;;;;5033767;28;20173;-66
2021/10/20 03:32:48;;;;;;;0.40;0.30;;;16.20;99.90;;;;;;5033647;28;20182;-67
2021/10/20 03:35:15;;;;;;;1.67;1.57;;;16.10;99.90;;;;;;5016134;28;20468;-67
2021/10/20 03:37:41;;;;;;;0.60;0.57;;;16.10;99.90;;;;;;5033497;28;20439;-67
2021/10/20 03:40:07;;;;;;;0.40;0.20;;;16.20;99.90;;;;;;5033185;28;20804;-67
2021/10/20 03:42:33;;;;;;;0.80;0.80;;;16.20;99.90;;;;;;5033599;28;20182;-67
2021/10/20 03:44:59;;;;;;;0.40;0.10;;;16.20;99.90;;;;;;5034045;28;20208;-68
2021/10/20 03:47:33;;;;;;;0.73;0.50;;;16.10;99.90;;;;;;5016521;28;20428;-67
2021/10/20 03:50:00;;;;;;;0.40;0.10;;;16.10;99.90;;;;;;5033923;28;20187;-67
2021/10/20 03:52:25;;;;;;;1.10;1.03;;;16.10;99.90;;;;;;5034085;28;20420;-68
2021/10/20 03:54:51;;;;;;;0.50;0.20;;;16.10;99.90;;;;;;5033951;28;20428;-68
2021/10/20 03:57:17;;;;;;;2.90;0.73;;;16.20;99.90;;;;;;5034096;28;20494;-67
2021/10/20 03:59:43;;;;;;;0.40;0.20;;;16.10;99.90;;;;;;5016290;28;20513;-67
2021/10/20 04:02:10;;;;;;;2.50;0.87;;;16.20;99.90;;;;;;5033047;28;20869;-67
2021/10/20 04:04:36;;;;;;;1.70;0.95;;;16.10;99.90;;;;;;5033603;28;20471;-66
2021/10/20 04:07:01;;;;;;;2.07;1.50;;;16.20;99.90;;;;;;5033787;28;20177;-67
2021/10/20 04:09:27;;;;;;;0.40;0.30;;;16.20;99.90;;;;;;5033579;28;20222;-66
2021/10/20 04:11:52;;;;;;;0.40;0.20;;;16.20;99.90;;;;;;5033538;28;20186;-66
2021/10/20 04:14:18;;;;;;;0.40;0.20;;;16.20;99.90;;;;;;5033671;28;20192;-66
2021/10/20 04:16:43;;;;;;;0.40;0.20;;;16.20;99.90;;;;;;5033480;28;20170;-67
2021/10/20 04:19:09;;;;;;;0.40;0.20;;;16.20;99.90;;;;;;5033257;28;20209;-67
2021/10/20 04:21:35;;;;;;;0.77;0.63;;;16.00;99.90;;;;;;5033791;28;20182;-67
2021/10/20 04:24:00;;;;;;;0.40;0.23;;;16.10;99.90;;;;;;5033631;28;20193;-67
2021/10/20 04:26:26;;;;;;;0.40;0.20;;;16.10;99.90;;;;;;5033569;28;20205;-67
2021/10/20 04:28:51;;;;;;;0.40;0.20;;;16.10;99.90;;;;;;5033547;28;20646;-67
2021/10/20 04:31:17;;;;;;;0.80;0.80;;;16.10;99.90;;;;;;5016339;28;20186;-67
2021/10/20 04:33:42;;;;;;;0.40;0.20;;;16.10;99.90;;;;;;5033765;28;20182;-67
2021/10/20 04:36:08;;;;;;;1.27;0.73;;;16.10;98.50;;;;;;5034051;28;20550;-68
2021/10/20 04:38:34;;;;;;;0.47;0.40;;;16.00;99.90;;;;;;5033559;28;20181;-67
2021/10/20 04:40:59;;;;;;;1.43;1.33;;;16.00;99.40;;;;;;5016205;28;20688;-67
2021/10/20 04:43:25;;;;;;;0.70;0.63;;;16.00;94.10;;;;;;5033470;28;20178;-67
2021/10/20 04:45:53;;;;;;;0.40;0.20;;;16.00;72.90;;;;;;5033432;28;20235;-67
2021/10/20 04:48:19;;;;;;;1.53;0.90;;;16.00;60.20;;;;;;5033263;28;20265;-67
2021/10/20 04:50:44;;;;;;;1.90;0.40;;;16.10;44.40;;;;;;5033486;28;20507;-68
2021/10/20 04:53:10;;;;;;;1.17;0.60;;;16.10;37.60;;;;;;5035103;28;20194;-67
2021/10/20 04:55:35;;;;;;;1.60;0.77;;;16.00;35.50;;;;;;5037134;28;20174;-67
2021/10/20 04:58:06;;;;;;;0.63;0.40;;;16.00;37.30;;;;;;5036944;28;20240;-68
2021/10/20 05:00:33;;;;;;;0.50;0.30;;;15.90;26.30;;;;;;5036880;28;20289;-67
2021/10/20 05:02:59;;;;;;;0.40;0.20;;;16.10;5.60;;;;;;5036860;28;20439;-67
2021/10/20 05:05:25;;;;;;;1.23;0.63;;;16.10;5.50;;;;;;5036777;28;20463;-67
2021/10/20 05:07:52;;;;;;;0.40;0.10;;;16.00;3.20;;;;;;5036817;28;20232;-67
2021/10/20 05:10:19;;;;;;;0.43;0.33;;;16.00;8.60;;;;;;5036358;28;20264;-67
2021/10/20 05:12:45;;;;;;;0.40;0.20;;;15.90;27.40;;;;;;5036512;28;20936;-66
2021/10/20 05:15:12;;;;;;;0.70;0.40;;;15.90;33.30;;;;;;5036790;28;20467;-67
2021/10/20 05:17:39;;;;;;;0.53;0.53;;;15.90;31.00;;;;;;5037073;28;20623;-67
2021/10/20 05:20:07;;;;;;;0.77;0.57;;;15.90;25.00;;;;;;5036358;28;20474;-67
2021/10/20 05:22:33;;;;;;;1.17;1.07;;;15.90;13.40;;;;;;5002619;28;20497;-67
2021/10/20 05:24:59;;;;;;;1.60;1.47;;;15.90;1.00;;;;;;5036325;28;20471;-67
2021/10/20 05:27:24;;;;;;;0.40;0.20;;;16.00;3.20;;;;;;5036602;28;20421;-67
2021/10/20 05:29:50;;;;;;;0.47;0.30;;;15.90;1.00;;;;;;5018443;28;20583;-67
2021/10/20 05:32:15;;;;;;;1.77;1.03;;;15.90;1.00;;;;;;5018601;28;20173;-67
2021/10/20 05:34:41;;;;;;;0.87;0.50;;;15.90;1.00;;;;;;5035991;28;20294;-66
2021/10/20 05:37:06;;;;;;;0.43;0.40;;;15.90;1.00;;;;;;5036331;28;20502;-66
2021/10/20 05:39:32;;;;;;;1.63;0.83;;;15.90;1.00;;;;;;5035807;28;20200;-67
2021/10/20 05:41:57;;;;;;;0.73;0.73;;;15.90;1.00;;;;;;5035734;28;20510;-66
2021/10/20 05:44:23;;;;;;;0.63;0.53;;;16.00;1.00;;;;;;5035916;28;20190;-67
2021/10/20 05:46:49;;;;;;;0.47;0.33;;;16.00;1.00;;;;;;5018307;28;20169;-67
2021/10/20 05:49:15;;;;;;;1.50;1.40;;;15.90;1.00;;;;;;5035355;28;20186;-66
2021/10/20 05:51:41;;;;;;;4.30;4.07;;;16.00;1.00;;;;;;5035565;28;20865;-67
2021/10/20 05:54:08;;;;;;;0.63;0.30;;;16.00;1.00;;;;;;5035549;28;20439;-66
2021/10/20 05:56:34;;;;;;;0.40;0.20;;;16.10;1.00;;;;;;5034189;28;20182;-66
2021/10/20 05:58:59;;;;;;;0.97;0.80;;;16.10;1.00;;;;;;5035423;28;20432;-66
2021/10/20 06:01:25;;;;;;;4.23;0.80;;;16.00;1.00;;;;;;5035712;28;20253;-67
2021/10/20 06:03:51;;;;;;;1.00;0.50;;;16.10;1.00;;;;;;5034668;28;20259;-66
2021/10/20 06:06:16;;;;;;;1.50;1.40;;;16.10;1.00;;;;;;5034355;28;20540;-67
2021/10/20 06:08:42;;;;;;;0.40;0.20;;;16.00;1.00;;;;;;5035103;28;20188;-67
2021/10/20 06:11:07;;;;;;;1.27;1.17;;;16.20;1.00;;;;;;5035639;28;20271;-67
2021/10/20 06:13:33;;;;;;;0.40;0.30;;;16.10;1.00;;;;;;5035316;28;20190;-67
2021/10/20 06:15:59;;;;;;;2.10;1.47;;;16.20;1.00;;;;;;5035247;28;20216;-66
2021/10/20 06:18:24;;;;;;;0.40;0.20;;;16.20;1.00;;;;;;5035097;28;20181;-66
2021/10/20 06:20:50;;;;;;;0.50;0.30;;;16.20;1.00;;;;;;5035474;28;20253;-66
2021/10/20 06:23:15;;;;;;;1.87;1.07;;;16.20;1.00;;;;;;5035096;28;20512;-67
2021/10/20 06:25:41;;;;;;;1.97;1.87;;;16.30;1.00;;;;;;5034634;28;20292;-66
2021/10/20 06:28:07;;;;;;;2.53;2.33;;;16.20;1.00;;;;;;5034325;28;20606;-67
2021/10/20 06:30:32;;;;;;;1.03;1.03;;;16.30;1.00;;;;;;5034487;28;20430;-66
2021/10/20 06:32:58;;;;;;;1.07;0.67;;;16.30;1.00;;;;;;5033548;28;20220;-66
2021/10/20 06:35:23;;;;;;;2.37;2.27;;;16.40;1.00;;;;;;5034530;28;20543;-67
2021/10/20 06:37:54;;;;;;;0.60;0.37;;;16.40;1.00;;;;;;5034372;28;20527;-67
2021/10/20 06:40:20;;;;;;;0.40;0.20;;;16.40;1.00;;;;;;5033039;28;20713;-67
2021/10/20 06:42:45;;;;;;;1.07;0.57;;;16.50;1.00;;;;;;5034239;28;20217;-67
2021/10/20 06:45:11;;;;;;;1.27;1.17;;;16.50;1.00;;;;;;5034236;28;20975;-67
2021/10/20 06:47:37;;;;;;;0.70;0.70;;;16.60;1.00;;;;;;5034237;28;20516;-67
2021/10/20 06:50:04;;;;;;;0.40;0.20;;;16.60;1.00;;;;;;5033775;28;20188;-67
2021/10/20 06:52:30;;;;;;;0.73;0.40;;;16.50;1.00;;;;;;5019961;28;20607;-67
2021/10/20 06:54:55;;;;;;;0.40;0.20;;;16.50;1.00;;;;;;5033857;28;20440;-67
2021/10/20 06:57:21;;;;;;;0.83;0.83;;;16.40;1.00;;;;;;5030382;28;20220;-66
2021/10/20 06:59:46;;;;;;;3.20;2.67;;;16.30;1.00;;;;;;5030950;28;20205;-68
2021/10/20 07:02:12;;;;;;;0.50;0.30;;;16.30;1.00;;;;;;5033755;28;20221;-68
2021/10/20 07:04:37;;;;;;;1.27;0.70;;;16.30;1.00;;;;;;5034311;28;20674;-68
2021/10/20 07:07:05;;;;;;;0.50;0.20;;;16.30;1.00;;;;;;5033577;28;20764;-68
2021/10/20 07:09:31;;;;;;;5.03;3.40;;;16.30;1.00;;;;;;5034132;28;20515;-69
2021/10/20 07:11:58;;;;;;;0.47;0.30;;;16.30;1.00;;;;;;5033633;28;20501;-68
2021/10/20 07:14:24;;;;;;;1.00;0.50;;;16.30;1.00;;;;;;5033909;28;20257;-69
2021/10/20 07:16:49;;;;;;;1.20;0.80;;;16.40;1.00;;;;;;5033763;28;20428;-69
2021/10/20 07:19:15;;;;;;;0.40;0.20;;;16.30;1.00;;;;;;5033687;28;20424;-68
2021/10/20 07:21:40;;;;;;;0.60;0.40;;;16.30;1.00;;;;;;5033839;28;20185;-67
2021/10/20 07:24:06;;;;;;;2.10;0.63;;;16.30;1.00;;;;;;5033847;28;20177;-67
2021/10/20 07:26:32;;;;;;;2.93;0.83;;;16.30;1.00;;;;;;5033644;28;20236;-67
2021/10/20 07:28:58;;;;;;;0.40;0.20;;;16.40;1.00;;;;;;5033481;28;20204;-67
2021/10/20 07:31:29;;;;;;;1.10;0.77;;;16.50;1.00;;;;;;5028820;28;20181;-68
2021/10/20 07:33:55;;;;;;;2.77;2.43;;;16.50;1.00;;;;;;5033652;28;20419;-67
2021/10/20 07:36:21;;;;;;;0.70;0.60;;;16.50;1.00;;;;;;5033410;28;20416;-67
2021/10/20 07:38:48;;;;;;;0.40;0.30;;;16.70;1.00;;;;;;5032999;28;20439;-67
2021/10/20 07:41:14;;;;;;;1.83;0.80;;;16.60;1.00;;;;;;5033650;28;20234;-67
2021/10/20 07:43:39;;;;;;;1.07;1.03;;;16.70;1.00;;;;;;5033687;28;20428;-68
2021/10/20 07:46:05;;;;;;;2.83;1.80;;;16.80;99.90;;;;;;5033225;28;20267;-69
2021/10/20 07:48:30;;;;;;;0.73;0.73;;;16.80;99.90;;;;;;5033221;28;20189;-66
2021/10/20 07:50:56;;;;;;;1.93;1.83;;;16.80;99.90;;;;;;5032550;28;20182;-66
2021/10/20 07:53:21;;;;;;;1.37;0.83;;;16.70;99.90;;;;;;5033330;28;20511;-66
2021/10/20 07:55:47;;;;;;;1.40;1.07;;;16.80;99.90;;;;;;5033530;28;20177;-66
2021/10/20 07:58:13;;;;;;;1.77;1.67;;;16.80;99.90;;;;;;5033199;28;20181;-66
2021/10/20 08:00:39;;;;;;;0.50;0.33;;;16.80;99.90;;;;;;5033352;28;20247;-68
2021/10/20 08:03:04;;;;;;;2.60;0.47;;;16.80;99.90;;;;;;5033284;28;20192;-67
2021/10/20 08:05:30;;;;;;;1.37;0.80;;;16.90;99.90;;;;;;5033557;28;20201;-68
2021/10/20 08:07:58;;;;;;;0.40;0.20;;;17.00;99.90;;;;;;5033284;28;20603;-68
2021/10/20 08:10:25;;;;;;;1.27;1.17;;;17.20;65.90;;;;;;5032954;28;20181;-69
2021/10/20 08:12:52;;;;;;;0.40;0.20;;;17.10;1.00;;;;;;5032887;28;20468;-68
2021/10/20 08:15:18;;;;;;;2.63;2.37;;;17.20;23.60;;;;;;5032901;28;20924;-69
2021/10/20 08:17:45;;;;;;;1.00;0.83;;;17.30;1.00;;;;;;5033104;28;20424;-69
2021/10/20 08:20:16;;;;;;;1.40;1.00;;;17.30;1.00;;;;;;5032989;28;20539;-70
2021/10/20 08:22:43;;;;;;;2.10;1.50;;;17.40;1.00;;;;;;5015855;28;20464;-71
2021/10/20 08:25:09;;;;;;;3.90;2.60;;;17.50;1.00;;;;;;5032832;28;20817;-70
2021/10/20 08:27:36;;;;;;;24.63;6.73;;;17.50;1.00;;;;;;5033412;28;20951;-68
2021/10/20 08:30:03;;;;;;;0.50;0.47;;;17.70;1.00;;;;;;5036512;28;20458;-68
2021/10/20 08:32:29;;;;;;;0.57;0.33;;;17.70;1.00;;;;;;5036736;28;20454;-69
2021/10/20 08:34:54;;;;;;;1.67;1.30;;;17.80;99.90;;;;;;5036459;28;20432;-68
2021/10/20 08:37:20;;;;;;;1.17;0.53;;;17.80;1.00;;;;;;5036589;28;20207;-68
2021/10/20 08:39:46;;;;;;;0.97;0.60;;;17.90;1.00;;;;;;5036561;28;20185;-69
2021/10/20 08:42:12;;;;;;;1.63;1.53;;;18.00;99.90;;;;;;5036719;28;20270;-66
2021/10/20 08:44:37;;;;;;;3.97;3.70;;;18.10;99.90;;;;;;5036532;28;20499;-69
2021/10/20 08:47:04;;;;;;;0.40;0.20;;;18.20;99.90;;;;;;5036640;28;20507;-67
2021/10/20 08:49:30;;;;;;;0.40;0.20;;;18.10;99.90;;;;;;5025049;28;20516;-68
2021/10/20 08:51:56;;;;;;;1.27;0.50;;;18.40;1.00;;;;;;5036263;28;20915;-67
2021/10/20 08:54:22;;;;;;;1.40;0.90;;;18.50;57.50;;;;;;5036300;28;20897;-68
2021/10/20 08:56:47;;;;;;;2.73;2.10;;;18.30;99.90;;;;;;5036262;28;20436;-68
2021/10/20 08:59:15;;;;;;;3.27;2.97;;;18.20;1.00;;;;;;5035915;28;20591;-67
2021/10/20 09:01:41;;;;;;;1.53;0.40;;;18.20;1.00;;;;;;5035266;28;20193;-69
2021/10/20 09:04:07;;;;;;;0.60;0.23;;;18.30;99.90;;;;;;5036178;28;20490;-68
2021/10/20 09:06:34;;;;;;;1.20;1.10;;;18.20;99.90;;;;;;5036074;28;20460;-69
2021/10/20 09:09:04;;;;;;;1.53;1.23;;;18.00;99.90;;;;;;5036070;28;20531;-68
2021/10/20 09:11:34;;;;;;;0.53;0.47;;;17.90;1.00;;;;;;5036186;28;20435;-68
2021/10/20 09:14:09;;;;;;;1.87;1.63;;;17.90;1.00;;;;;;5036142;28;20977;-70
2021/10/20 09:16:37;;;;;;;3.17;2.87;;;18.10;1.00;;;;;;5014842;28;20924;-68
2021/10/20 09:19:15;;;;;;;0.40;0.20;;;17.90;1.00;;;;;;5022035;28;20578;-71
2021/10/20 09:21:53;;;;;;;1.50;0.83;;;18.00;1.00;;;;;;5035915;28;20447;-70
2021/10/20 09:24:19;;;;;;;3.20;1.70;;;18.00;1.00;;;;;;5028584;28;20771;-67
2021/10/20 09:26:45;;;;;;;4.87;3.40;;;18.00;1.00;;;;;;5013576;28;20475;-68
2021/10/20 09:29:25;;;;;;;1.60;1.50;;;18.10;1.00;;;;;;5016594;28;20439;-67
2021/10/20 09:31:54;;;;;;;0.70;0.53;;;18.10;1.00;;;;;;5019359;28;20517;-68
2021/10/20 09:34:20;;;;;;;2.40;2.17;;;18.30;1.00;;;;;;5018287;28;20420;-68
2021/10/20 09:36:46;;;;;;;0.40;0.20;;;18.30;99.90;;;;;;5035764;28;20428;-67
2021/10/20 09:39:14;;;;;;;0.60;0.37;;;18.20;1.00;;;;;;5035368;28;20186;-67
2021/10/20 09:41:40;;;;;;;0.97;0.87;;;18.10;1.00;;;;;;5035481;28;20209;-67
2021/10/20 09:44:13;;;;;;;3.90;1.43;;;18.10;1.00;;;;;;5035301;28;20424;-67
2021/10/20 09:46:46;;;;;;;0.60;0.47;;;18.20;1.00;;;;;;5035396;28;20503;-68
2021/10/20 09:49:20;;;;;;;1.33;0.73;;;18.40;1.00;;;;;;5035171;28;20908;-67
2021/10/20 09:51:47;;;;;;;0.73;0.60;;;18.40;99.90;;;;;;5035271;28;20431;-67
2021/10/20 09:54:22;;;;;;;2.20;1.13;;;18.50;99.90;;;;;;5035382;28;20421;-68
2021/10/20 09:56:58;;;;;;;3.93;1.93;;;18.50;99.90;;;;;;5035316;28;20480;-68
2021/10/20 09:59:25;;;;;;;3.43;2.97;;;18.80;1.00;;;;;;5034876;28;20443;-68
2021/10/20 10:01:51;;;;;;;2.60;2.50;;;19.00;97.20;;;;;;5035379;28;20417;-68
2021/10/20 10:04:17;;;;;;;7.47;3.97;;;19.30;99.90;;;;;;5034999;28;20481;-68
2021/10/20 10:06:45;;;;;;;3.13;1.50;;;19.40;99.90;;;;;;5035051;28;20621;-68
2021/10/20 10:09:10;;;;;;;0.97;0.90;;;19.60;40.50;;;;;;5034951;28;20727;-68
2021/10/20 10:11:40;;;;;;;3.33;1.90;;;19.80;1.00;;;;;;5034937;28;20885;-67
2021/10/20 10:14:08;;;;;;;3.27;2.57;;;19.80;1.00;;;;;;5035235;28;20450;-67
2021/10/20 10:16:37;;;;;;;0.50;0.30;;;19.90;99.90;;;;;;5017411;28;20522;-67
2021/10/20 10:19:04;;;;;;;0.97;0.87;;;19.90;99.90;;;;;;5017151;28;20436;-68
2021/10/20 10:21:32;;;;;;;0.70;0.50;;;20.00;1.00;;;;;;5034954;28;20518;-67
2021/10/20 10:24:01;;;;;;;0.50;0.43;;;19.70;1.00;;;;;;5017457;28;20432;-68
2021/10/20 10:26:27;;;;;;;3.33;1.80;;;19.50;1.00;;;;;;5034850;28;20460;-68
2021/10/20 10:29:13;;;;;;;2.13;1.57;;;19.40;99.90;;;;;;5032716;28;20448;-68
2021/10/20 10:31:43;;;;;;;1.97;1.87;;;19.20;11.60;;;;;;5034836;28;20443;-68
2021/10/20 10:34:30;;;;;;;0.50;0.30;;;19.30;1.00;;;;;;5032344;28;20428;-68
2021/10/20 10:37:00;;;;;;;2.23;0.93;;;19.60;1.00;;;;;;5035186;28;20432;-67
2021/10/20 10:39:28;;;;;;;0.40;0.20;;;19.60;1.00;;;;;;5034676;28;20804;-68
2021/10/20 10:42:02;;;;;;;3.97;3.77;;;19.50;99.90;;;;;;5034986;28;20485;-68
2021/10/20 10:44:48;;;;;;;1.87;1.40;;;19.40;99.90;;;;;;5035109;28;20698;-68
2021/10/20 10:47:18;;;;;;;0.60;0.50;;;19.30;1.00;;;;;;5016611;28;20511;-67
2021/10/20 10:49:55;;;;;;;0.93;0.93;;;19.10;99.90;;;;;;5034656;28;20462;-66
2021/10/20 10:52:33;;;;;;;0.70;0.60;;;18.90;1.00;;;;;;5001160;28;20442;-66
2021/10/20 10:55:09;;;;;;;0.40;0.20;;;18.50;99.90;;;;;;5017445;28;20501;-68
2021/10/20 10:58:02;;;;;;;0.40;0.30;;;18.40;1.00;;;;;;5034344;28;20798;-67
2021/10/20 11:00:47;;;;;;;3.53;1.57;;;18.30;1.00;;;;;;5023375;28;20513;-69
2021/10/20 11:03:21;;;;;;;1.90;0.97;;;18.30;1.00;;;;;;5034878;28;20434;-67
2021/10/20 11:05:52;;;;;;;0.40;0.20;;;18.20;1.00;;;;;;5016691;28;20707;-67
2021/10/20 11:08:19;;;;;;;0.60;0.43;;;18.30;99.90;;;;;;5034154;28;20420;-67
2021/10/20 11:10:46;;;;;;;0.50;0.33;;;18.40;1.00;;;;;;5034415;28;20434;-67
2021/10/20 11:13:12;;;;;;;0.50;0.40;;;18.50;99.90;;;;;;5034453;28;20896;-67
2021/10/20 11:15:38;;;;;;;0.57;0.57;;;18.60;99.90;;;;;;5034421;28;20428;-68
2021/10/20 11:18:05;;;;;;;0.70;0.60;;;18.70;99.90;;;;;;5034164;28;20494;-66
2021/10/20 11:20:34;;;;;;;1.60;1.50;;;19.00;73.60;;;;;;5034451;28;20181;-66
2021/10/20 11:23:08;;;;;;;0.40;0.20;;;19.20;1.00;;;;;;5017763;28;20743;-68
2021/10/20 11:25:37;;;;;;;1.97;1.77;;;19.10;1.00;;;;;;5034725;28;20467;-68
2021/10/20 11:28:05;;;;;;;0.70;0.47;;;19.10;99.90;;;;;;5034428;28;20432;-66
2021/10/20 11:30:35;;;;;;;0.40;0.20;;;19.10;1.00;;;;;;5034632;28;20424;-67
2021/10/20 11:33:01;;;;;;;1.07;0.70;;;19.10;1.00;;;;;;5034906;28;20427;-67
2021/10/20 11:35:31;;;;;;;1.10;0.57;;;19.30;1.00;;;;;;5035008;28;20598;-67
2021/10/20 11:37:59;;;;;;;1.00;1.00;;;19.20;1.00;;;;;;5034603;28;20420;-69
2021/10/20 11:40:30;;;;;;;0.60;0.40;;;19.10;1.00;;;;;;5033765;28;20435;-69
2021/10/20 11:42:55;;;;;;;0.60;0.43;;;18.90;1.00;;;;;;5034419;28;20455;-68
2021/10/20 11:45:21;;;;;;;0.97;0.97;;;18.90;1.00;;;;;;5034029;28;20784;-66
2021/10/20 11:47:47;;;;;;;0.50;0.30;;;18.80;1.00;;;;;;5033034;28;20360;-67
2021/10/20 11:50:16;;;;;;;0.83;0.57;;;18.70;15.60;;;;;;5034027;28;20192;-67
2021/10/20 11:52:42;;;;;;;1.27;0.87;;;18.80;1.00;;;;;;5033847;28;20454;-67
2021/10/20 11:55:13;;;;;;;0.63;0.63;;;18.70;20.70;;;;;;5033900;28;20431;-71
2021/10/20 11:57:43;;;;;;;1.00;0.83;;;18.50;99.90;;;;;;5033867;28;20185;-66
2021/10/20 12:00:10;;;;;;;0.60;0.40;;;18.60;99.90;;;;;;5029556;28;20448;-69
2021/10/20 12:02:36;;;;;;;0.90;0.40;;;18.60;99.90;;;;;;5024748;28;20432;-70
2021/10/20 12:05:02;;;;;;;3.40;2.10;;;18.70;78.00;;;;;;5037769;28;20826;-69
2021/10/20 12:07:31;;;;;;;1.33;0.97;;;18.70;99.90;;;;;;5037586;28;20455;-68
2021/10/20 12:09:59;;;;;;;1.20;1.10;;;18.70;99.90;;;;;;5036891;28;20439;-69
2021/10/20 12:12:25;;;;;;;0.80;0.80;;;18.50;99.90;;;;;;5035193;28;20543;-68
2021/10/20 12:14:58;;;;;;;2.70;1.30;;;18.50;99.90;;;;;;5037029;28;20923;-68
2021/10/20 12:17:26;;;;;;;0.67;0.67;;;18.40;99.90;;;;;;5037510;28;20573;-70
2021/10/20 12:19:55;;;;;;;2.50;1.47;;;18.30;1.00;;;;;;5035294;28;20432;-70
2021/10/20 12:22:21;;;;;;;1.33;1.20;;;18.30;1.00;;;;;;5018111;28;20884;-69
2021/10/20 12:24:49;;;;;;;1.17;0.67;;;18.20;1.00;;;;;;5036642;28;20423;-69
2021/10/20 12:27:16;;;;;;;3.33;2.63;;;18.10;1.00;;;;;;5037459;28;20227;-69
2021/10/20 12:29:53;;;;;;;1.37;1.23;;;18.10;1.00;;;;;;5034415;28;20985;-69
2021/10/20 12:32:24;;;;;;;0.40;0.10;;;18.20;4.80;;;;;;5028344;28;20423;-69
2021/10/20 12:34:52;;;;;;;0.60;0.60;;;18.20;1.00;;;;;;5037220;28;20438;-69
2021/10/20 12:37:18;;;;;;;0.60;0.47;;;18.30;1.00;;;;;;5037066;28;20438;-69
2021/10/20 12:39:49;;;;;;;2.00;1.43;;;18.20;1.00;;;;;;5037097;28;20514;-69
2021/10/20 12:42:15;;;;;;;1.27;1.17;;;18.00;1.00;;;;;;5036386;28;20269;-70
2021/10/20 12:44:41;;;;;;;2.30;1.70;;;18.00;19.20;;;;;;5035288;28;20441;-69
2021/10/20 12:47:07;;;;;;;1.63;0.80;;;18.00;1.00;;;;;;5036907;28;20439;-68
2021/10/20 12:49:34;;;;;;;1.43;1.33;;;18.10;1.00;;;;;;5036070;28;20173;-68